West Rancho Bernardo (500) Station Data

Red Flag Warning: No
Fire Weather Zone: 250
SDGE Region: North East
Lat/Lon: 33.031/-117.122

Observations

Time Wind Speed/Gust Temp(F) RH Fuel Moist Fuel Temp(F) Dewpt(F) Tmax(F) Tmin(F) Accum Precip 10-min Precip SL Press(mb)
6/27 5:00pm 262 10 G 13 77° 52% - - 58° 85.3° 67.7° - - -
6/27 4:50pm 254 9 G 14 77° 51% - - 58° 85.3° 67.7° - - -
6/27 4:40pm 262 11 G 14 76° 53% - - 58° 85.3° 67.7° - - -
6/27 4:30pm 263 11 G 15 77° 53% - - 59° 85.3° 67.7° - - -
6/27 4:20pm 258 11 G 17 78° 51% - - 59° 85.3° 67.7° - - -
6/27 4:10pm 261 11 G 17 79° 48% - - 58° 85.3° 67.7° - - -
6/27 4:00pm 245 11 G 16 78° 49% - - 58° 85.3° 67.7° - - -
6/27 3:50pm 256 12 G 17 78° 50% - - 58° 85.3° 67.7° - - -
6/27 3:40pm 246 10 G 16 79° 51% - - 59° 85.3° 67.7° - - -
6/27 3:30pm 251 11 G 16 78° 52% - - 59° 85.3° 67.7° - - -
6/27 3:20pm 253 12 G 17 78° 53% - - 59° 85.3° 67.7° - - -
6/27 3:10pm 252 12 G 16 79° 49% - - 58° 85.3° 67.7° - - -
6/27 3:00pm 251 12 G 17 78° 51% - - 59° 85.3° 67.7° - - -
6/27 2:50pm 257 12 G 17 78° 51% - - 59° 85.3° 67.7° - - -
6/27 2:40pm 260 13 G 18 78° 52% - - 59° 85.3° 67.7° - - -
6/27 2:30pm 255 14 G 20 79° 51% - - 59° 85.3° 67.7° - - -
6/27 2:20pm 266 15 G 19 78° 52% - - 59° 85.3° 67.7° - - -
6/27 2:00pm 262 13 G 17 79° 54% - - 61° 85.3° 67.7° - - -
6/27 1:50pm 258 12 G 18 80° 54% - - 62° 85.3° 67.7° - - -
6/27 1:30pm 251 13 G 19 80° 52% - - 61° 85.3° 67.7° - - -
6/27 1:20pm 255 13 G 18 82° 50% - - 61° 85.3° 67.7° - - -
6/27 1:10pm 243 13 G 16 82° 48% - - 61° 85.3° 67.7° - - -
6/27 1:00pm 256 13 G 18 82° 48% - - 60° 85.3° 67.7° - - -
6/27 12:50pm 255 13 G 16 82° 46% - - 60° 85.3° 67.7° - - -
6/27 12:40pm 269 11 G 15 82° 46% - - 59° 85.3° 67.7° - - -
6/27 12:10pm 263 11 G 16 83° 43% - - 58° 85.3° 67.7° - - -
6/27 11:50am 264 10 G 15 83° 36% - - 54° 85.3° 67.7° - - -
6/27 11:30am 253 11 G 15 83° 35% - - 53° 85.3° 67.7° - - -
6/27 11:20am 254 10 G 13 84° 34% - - 52° 85.3° 67.7° - - -
6/27 11:10am 233 8 G 12 84° 37% - - 55° 85.3° 67.7° - - -
6/27 10:50am 251 9 G 13 84° 36% - - 54° 85.3° 67.7° - - -
6/27 10:40am 258 7 G 10 84° 29% - - 48° 85.3° 67.7° - - -
6/27 10:20am 255 5 G 10 84° 27% - - 47° 84.6° 67.7° - - -
6/27 10:10am 254 6 G 10 83° 30% - - 48° 83.9° 67.7° - - -
6/27 10:00am 262 7 G 9 82° 32% - - 49° 82.9° 67.7° - - -
6/27 9:50am 253 7 G 10 82° 33% - - 50° 82.9° 67.7° - - -
6/27 9:40am 259 7 G 9 82° 32% - - 49° 82.9° 67.7° - - -
6/27 9:30am 275 6 G 9 83° 25% - - 43° 82.9° 67.7° - - -
6/27 9:10am 234 6 G 9 81° 29% - - 46° 81.6° 67.7° - - -
6/27 8:30am 231 3 G 5 78° 29% - - 43° 79.6° 67.7° - - -
6/27 8:10am 249 2 G 3 77° 29% - - 43° 79.6° 67.7° - - -
6/27 8:00am 261 1 G 3 76° 29% - - 41° 79.6° 67.7° - - -
6/27 7:50am 260 1 G 2 76° 31% - - 43° 79.6° 67.7° - - -
6/27 7:40am 160 1 G 2 78° 26% - - 40° 79.6° 67.7° - - -
6/27 7:30am 84 1 G 4 75° 30% - - 41° 79.6° 67.7° - - -
6/27 7:20am 111 1 G 2 73° 34% - - 42° 79.6° 67.7° - - -
6/27 7:10am 237 0 G 1 72° 33% - - 41° 79.6° 67.7° - - -
6/27 7:00am 179 0 G 1 72° 34% - - 42° 79.6° 67.7° - - -
6/27 6:50am 183 1 G 2 71° 34% - - 42° 79.6° 67.7° - - -
6/27 6:40am 62 1 G 2 69° 37% - - 42° 79.6° 67.7° - - -
6/27 6:30am 257 2 G 3 70° 38% - - 43° 79.6° 67.7° - - -
6/27 6:20am 16 1 G 2 71° 33% - - 41° 79.6° 69.5° - - -
6/27 6:10am 221 0 G 1 71° 33% - - 40° 79.6° 69.5° - - -
6/27 6:00am 158 1 G 2 71° 32% - - 40° 79.6° 69.5° - - -
6/27 5:50am 203 1 G 2 72° 30% - - 39° 79.6° 69.5° - - -
6/27 5:40am 218 1 G 3 74° 25% - - 36° 79.6° 69.5° - - -
6/27 5:30am 199 1 G 3 75° 24% - - 35° 79.6° 69.5° - - -
6/27 5:20am 294 2 G 5 74° 25% - - 36° 79.6° 69.5° - - -
6/27 5:10am 17 2 G 5 73° 25% - - 35° 79.6° 69.5° - - -
6/27 5:00am 106 2 G 5 72° 28% - - 37° 79.6° 69.5° - - -
6/27 4:50am 199 1 G 3 72° 31% - - 40° 79.6° 69.5° - - -
6/27 4:40am 207 2 G 6 73° 31% - - 40° 79.6° 69.5° - - -
6/27 4:30am 322 5 G 11 75° 26% - - 38° 79.6° 69.5° - - -
6/27 4:20am 15 9 G 12 76° 22% - - 35° 79.6° 69.5° - - -
6/27 4:10am 11 8 G 13 74° 25% - - 36° 79.6° 69.5° - - -
6/27 4:00am 281 2 G 4 76° 25% - - 38° 79.6° 69.5° - - -
6/27 3:50am 324 2 G 3 77° 25% - - 39° 79.6° 69.5° - - -
6/27 3:40am 78 1 G 2 76° 27% - - 39° 79.6° 69.5° - - -
6/27 3:30am 297 1 G 2 72° 35% - - 43° 79.6° 69.5° - - -
6/27 3:20am 135 0 G 2 70° 44% - - 48° 79.6° 69.5° - - -
6/27 3:10am 270 2 G 3 71° 48% - - 50° 79.6° 69.5° - - -
6/27 3:00am 276 1 G 3 73° 37% - - 45° 79.6° 71.3° - - -
6/27 2:50am 94 1 G 2 75° 32% - - 43° 79.6° 71.3° - - -
6/27 2:40am 91 1 G 2 78° 28% - - 42° 79.6° 71.3° - - -
6/27 2:30am 28 2 G 5 79° 25% - - 40° 79.6° 71.3° - - -
6/27 2:20am 50 3 G 7 79° 25% - - 40° 79.3° 71.3° - - -
6/27 2:10am 38 4 G 8 76° 30% - - 43° 78.8° 71.3° - - -
6/27 2:00am 23 5 G 11 76° 31% - - 43° 77° 71.3° - - -
6/27 1:50am 2 4 G 10 74° 35% - - 44° 76.9° 71.3° - - -
6/27 1:40am 257 1 G 4 72° 45% - - 49° 76.9° 71.3° - - -
6/27 1:30am 208 1 G 4 72° 52% - - 53° 76.9° 71.4° - - -
6/27 1:20am 106 1 G 3 72° 57% - - 56° 76.9° 71.7° - - -
6/27 1:10am 196 1 G 3 73° 56% - - 56° 76.9° 72.1° - - -
6/27 1:00am 86 1 G 3 73° 55% - - 55° 76.9° 72.2° - - -
6/27 12:50am 93 2 G 2 73° 53% - - 54° 76.9° 72.4° - - -
6/27 12:40am 80 1 G 2 74° 46% - - 52° 76.9° 73.3° - - -
6/27 12:30am 293 0 G 1 74° 45% - - 51° 76.9° 73.6° - - -
6/27 12:20am 270 1 G 2 74° 44% - - 51° 76.9° 73.9° - - -
6/27 12:10am 255 2 G 2 76° 38% - - 48° 76.9° 74.5° - - -
6/27 12:00am 257 1 G 3 77° 33% - - 46° 87.8° 65.3° - - -
6/26 11:50pm 100 1 G 2 78° 33% - - 47° 87.8° 65.3° - - -
6/26 11:40pm 24 2 G 4 80° 29% - - 45° 87.8° 65.3° - - -
6/26 11:30pm 52 3 G 6 80° 28% - - 45° 87.8° 65.3° - - -
6/26 11:20pm 37 6 G 8 80° 30% - - 46° 87.8° 65.3° - - -
6/26 11:10pm 46 5 G 9 80° 28% - - 44° 87.8° 65.3° - - -
6/26 11:00pm 192 1 G 3 79° 26% - - 41° 87.8° 65.3° - - -
6/26 10:50pm 4 4 G 7 81° 22% - - 38° 87.8° 65.3° - - -
6/26 10:40pm 51 3 G 6 79° 26% - - 41° 87.8° 65.3° - - -
6/26 10:30pm 37 3 G 5 83° 19% - - 35° 87.8° 65.3° - - -
6/26 10:20pm 40 4 G 7 81° 23% - - 38° 87.8° 65.3° - - -
6/26 10:10pm 29 3 G 5 83° 17% - - 33° 87.8° 65.3° - - -
6/26 10:00pm 19 3 G 6 81° 19% - - 35° 87.8° 65.3° - - -
6/26 9:50pm 18 2 G 3 76° 38% - - 48° 87.8° 65.3° - - -
6/26 9:40pm 84 1 G 3 74° 58% - - 59° 87.8° 65.3° - - -
6/26 9:30pm 219 0 G 1 73° 69% - - 62° 87.8° 65.3° - - -
6/26 9:20pm 217 1 G 3 74° 63% - - 60° 87.8° 65.3° - - -
6/26 9:10pm 256 1 G 2 74° 62% - - 61° 87.8° 65.3° - - -
6/26 9:00pm 228 1 G 2 75° 62% - - 61° 87.8° 65.3° - - -
6/26 8:50pm 264 0 G 2 76° 55% - - 59° 87.8° 65.3° - - -
6/26 8:40pm 287 2 G 3 76° 55% - - 59° 87.8° 65.3° - - -
6/26 8:30pm 269 2 G 3 77° 52% - - 59° 87.8° 65.3° - - -
6/26 8:20pm 295 2 G 3 77° 54% - - 59° 87.8° 65.3° - - -
6/26 8:10pm 309 3 G 5 77° 58% - - 61° 87.8° 65.3° - - -
6/26 8:00pm 268 3 G 4 77° 56% - - 60° 87.8° 65.3° - - -
6/26 7:50pm 265 3 G 5 77° 55% - - 60° 87.8° 65.3° - - -
6/26 7:40pm 258 4 G 5 79° 51% - - 59° 87.8° 65.3° - - -
6/26 7:30pm 262 4 G 5 80° 45% - - 56° 87.8° 65.3° - - -
6/26 7:20pm 259 5 G 6 81° 44% - - 57° 87.8° 65.3° - - -
6/26 7:10pm 263 4 G 6 81° 42% - - 56° 87.8° 65.3° - - -
6/26 7:00pm 269 6 G 7 81° 42% - - 56° 87.8° 65.3° - - -
6/26 6:50pm 272 7 G 9 82° 39% - - 54° 87.8° 65.3° - - -
6/26 6:40pm 276 7 G 9 83° 36% - - 53° 87.8° 65.3° - - -
6/26 6:30pm 258 8 G 11 83° 32% - - 50° 87.8° 65.3° - - -
6/26 6:20pm 261 8 G 11 83° 32% - - 50° 87.8° 65.3° - - -
6/26 6:10pm 247 8 G 11 84° 32% - - 51° 87.8° 65.3° - - -
6/26 6:00pm 253 8 G 13 84° 33% - - 52° 87.8° 65.3° - - -
6/26 5:50pm 257 9 G 13 84° 32% - - 51° 87.8° 65.3° - - -
6/26 5:40pm 263 10 G 13 84° 34% - - 53° 87.8° 65.3° - - -
6/26 5:30pm 258 10 G 14 85° 34% - - 53° 87.8° 65.3° - - -
6/26 5:20pm 259 12 G 17 85° 30% - - 50° 87.8° 65.3° - - -
6/26 5:10pm 263 12 G 16 85° 29% - - 49° 87.8° 65.3° - - -
6/26 5:00pm 264 13 G 18 86° 27% - - 47° 87.8° 65.3° - - -
6/26 4:50pm 261 13 G 19 87° 24% - - 46° 87.8° 65.3° - - -
6/26 4:40pm 262 11 G 15 87° 24% - - 46° 87.8° 65.3° - - -
6/26 4:30pm 257 11 G 15 87° 27% - - 49° 87.7° 65.3° - - -
6/26 4:20pm 254 10 G 14 87° 29% - - 51° 87.7° 65.3° - - -
6/26 4:10pm 262 11 G 16 86° 31% - - 52° 87.2° 65.3° - - -
6/26 4:00pm 262 13 G 17 86° 33% - - 54° 87° 65.3° - - -
6/26 3:50pm 260 12 G 17 86° 36% - - 56° 87° 65.3° - - -
6/26 3:40pm 266 13 G 17 85° 41% - - 58° 86.3° 65.3° - - -
6/26 3:30pm 267 13 G 17 85° 42% - - 59° 86.3° 65.3° - - -
6/26 3:20pm 271 12 G 16 85° 40% - - 58° 86.3° 65.3° - - -
6/26 3:10pm 264 14 G 19 84° 42% - - 59° 86.3° 65.3° - - -
6/26 3:00pm 267 13 G 18 85° 42% - - 59° 86.3° 65.3° - - -
6/26 2:50pm 259 13 G 17 85° 41% - - 59° 86.3° 65.3° - - -
6/26 2:40pm 255 11 G 15 85° 40% - - 58° 86.3° 65.3° - - -
6/26 2:30pm 260 12 G 15 85° 38% - - 57° 86.3° 65.3° - - -
6/26 2:20pm 261 10 G 14 85° 35% - - 55° 86.3° 65.3° - - -
6/26 2:10pm 264 11 G 14 85° 39% - - 57° 86° 65.3° - - -
6/26 2:00pm 259 10 G 14 85° 40% - - 58° 86° 65.3° - - -
6/26 1:50pm 260 11 G 14 84° 42% - - 59° 85° 65.3° - - -
6/26 1:40pm 260 10 G 14 84° 43% - - 59° 85° 65.3° - - -
6/26 1:30pm 267 10 G 15 83° 47% - - 60° 84.1° 65.3° - - -
6/26 1:20pm 258 11 G 16 83° 48% - - 61° 84.1° 65.3° - - -
6/26 1:10pm 264 12 G 15 82° 50% - - 62° 84.1° 65.3° - - -
6/26 1:00pm 265 13 G 17 83° 51% - - 63° 84.1° 65.3° - - -
6/26 12:50pm 257 12 G 16 83° 50% - - 62° 84.1° 65.3° - - -
6/26 12:40pm 257 11 G 15 83° 51% - - 63° 84.1° 65.3° - - -
6/26 12:30pm 250 9 G 15 83° 50% - - 62° 84.1° 65.3° - - -
6/26 12:20pm 255 9 G 13 82° 52% - - 63° 83.6° 65.3° - - -
6/26 12:10pm 251 9 G 13 82° 54% - - 63° 83° 65.3° - - -
6/26 12:00pm 261 11 G 15 82° 55% - - 64° 83° 65.3° - - -
6/26 11:50am 257 11 G 15 81° 57% - - 64° 83° 65.3° - - -
6/26 11:40am 266 11 G 15 81° 58% - - 64° 83° 65.3° - - -
6/26 11:30am 265 12 G 15 81° 57% - - 65° 83° 65.3° - - -
6/26 11:20am 274 11 G 15 81° 57% - - 64° 83° 65.3° - - -
6/26 11:10am 265 11 G 15 82° 55% - - 64° 83° 65.3° - - -
6/26 11:00am 262 12 G 18 82° 55% - - 64° 83° 65.3° - - -
6/26 10:50am 269 10 G 14 81° 56% - - 64° 83° 65.3° - - -
6/26 10:40am 260 9 G 13 82° 53% - - 63° 83° 65.3° - - -
6/26 10:30am 268 10 G 14 81° 54% - - 63° 82.1° 65.3° - - -
6/26 10:20am 273 9 G 12 81° 51% - - 61° 82.1° 65.3° - - -
6/26 10:10am 264 8 G 13 82° 50% - - 61° 82.1° 65.3° - - -
6/26 10:00am 263 7 G 10 81° 51% - - 61° 81.1° 65.3° - - -
6/26 9:50am 260 8 G 11 80° 51% - - 60° 80.8° 65.3° - - -
6/26 9:40am 257 7 G 10 80° 49% - - 59° 80.8° 65.3° - - -
6/26 9:30am 257 6 G 9 80° 47% - - 59° 80.8° 65.3° - - -
6/26 9:20am 236 4 G 6 80° 50% - - 59° 80.1° 65.3° - - -
6/26 9:10am 230 4 G 6 79° 54% - - 61° 79.6° 65.3° - - -
6/26 9:00am 231 4 G 6 79° 53% - - 60° 79.2° 65.3° - - -
6/26 8:50am 236 4 G 6 78° 57% - - 62° 79.2° 65.3° - - -
6/26 8:40am 247 4 G 5 77° 56% - - 60° 79.2° 65.3° - - -
6/26 8:30am 252 3 G 4 77° 58% - - 61° 79.2° 65.3° - - -
6/26 8:20am 230 2 G 3 77° 59% - - 62° 79.2° 65.3° - - -
6/26 8:10am 224 1 G 2 77° 58% - - 61° 79.2° 65.3° - - -
6/26 8:00am 250 1 G 2 75° 60% - - 60° 79.2° 65.3° - - -
6/26 7:50am 260 2 G 3 75° 59% - - 59° 79.2° 65.3° - - -
6/26 7:40am 244 1 G 2 76° 53% - - 57° 79.2° 65.3° - - -
6/26 7:30am 265 1 G 2 75° 50% - - 55° 79.2° 65.3° - - -
6/26 7:20am 267 1 G 2 74° 49% - - 54° 79.2° 65.3° - - -
6/26 7:10am 263 2 G 3 75° 45% - - 52° 79.2° 65.3° - - -
6/26 7:00am 276 2 G 2 75° 42% - - 51° 79.2° 65.3° - - -
6/26 6:50am 247 1 G 2 76° 41% - - 51° 79.2° 65.3° - - -
6/26 6:40am 206 2 G 3 77° 38% - - 49° 79.2° 65.3° - - -
6/26 6:30am 360 6 G 10 78° 33% - - 47° 79.2° 65.3° - - -
6/26 6:20am 9 7 G 11 77° 37% - - 48° 79.2° 65.3° - - -
6/26 6:10am 11 8 G 11 75° 41% - - 49° 75.7° 65.3° - - -
6/26 6:00am 15 8 G 12 73° 45% - - 51° 75.7° 65.3° - - -